createdAt,value
2023-10-17T00:00:35.294Z,12.10
2023-10-17T00:01:35.281Z,12.40
2023-10-17T00:02:35.263Z,12.10
2023-10-17T00:03:35.345Z,11.80
2023-10-17T00:04:35.373Z,12.50
2023-10-17T00:05:35.374Z,13.90
2023-10-17T00:06:35.229Z,12.40
2023-10-17T00:07:35.222Z,12.00
2023-10-17T00:08:35.220Z,12.00
2023-10-17T00:09:35.260Z,12.50
2023-10-17T00:10:35.213Z,12.40
2023-10-17T00:11:35.214Z,12.50
2023-10-17T00:12:35.206Z,14.50
2023-10-17T00:13:35.213Z,11.90
2023-10-17T00:14:35.198Z,11.90
2023-10-17T00:15:35.195Z,12.60
2023-10-17T00:16:35.188Z,12.00
2023-10-17T00:17:35.253Z,11.80
2023-10-17T00:18:35.237Z,12.00
2023-10-17T00:19:35.208Z,11.70
2023-10-17T00:20:35.175Z,11.60
2023-10-17T00:21:35.174Z,12.20
2023-10-17T00:22:35.169Z,11.80
2023-10-17T00:23:35.164Z,12.20
2023-10-17T00:24:35.254Z,11.90
2023-10-17T00:25:35.151Z,11.90
2023-10-17T00:26:35.148Z,12.80
2023-10-17T00:27:35.144Z,11.70
2023-10-17T00:28:35.170Z,12.20
2023-10-17T00:29:35.138Z,11.90
2023-10-17T00:30:35.208Z,12.00
2023-10-17T00:31:35.130Z,12.70
2023-10-17T00:32:35.187Z,13.20
2023-10-17T00:33:35.187Z,12.10
2023-10-17T00:34:35.125Z,12.90
2023-10-17T00:35:35.120Z,12.10
2023-10-17T00:36:35.126Z,11.50
2023-10-17T00:37:35.109Z,12.00
2023-10-17T00:38:35.107Z,12.00
2023-10-17T00:39:35.176Z,12.20
2023-10-17T00:40:35.100Z,12.50
2023-10-17T00:41:35.098Z,12.80
2023-10-17T00:42:35.150Z,12.30
2023-10-17T00:43:35.093Z,15.10
2023-10-17T00:44:35.095Z,12.30
2023-10-17T00:45:35.147Z,13.20
2023-10-17T00:46:37.813Z,12.80
2023-10-17T00:47:35.105Z,12.50
2023-10-17T00:48:35.118Z,12.30
2023-10-17T00:49:35.112Z,12.30
2023-10-17T00:50:35.077Z,12.90
2023-10-17T00:51:35.105Z,12.80
2023-10-17T00:52:35.057Z,12.40
2023-10-17T00:53:35.067Z,12.10
2023-10-17T00:54:35.065Z,12.20
2023-10-17T00:55:35.050Z,13.50
2023-10-17T00:56:35.052Z,12.00
2023-10-17T00:57:35.076Z,11.90
2023-10-17T00:58:35.038Z,11.80
2023-10-17T00:59:35.041Z,13.00
2023-10-17T01:00:35.133Z,11.90
2023-10-17T01:01:35.031Z,11.90
2023-10-17T01:02:35.050Z,11.70
2023-10-17T01:03:35.030Z,12.00
2023-10-17T01:04:35.040Z,11.80
2023-10-17T01:05:35.041Z,11.70
2023-10-17T01:06:35.034Z,11.80
2023-10-17T01:07:35.011Z,11.80
2023-10-17T01:08:35.000Z,11.30
2023-10-17T01:09:35.006Z,11.70
2023-10-17T01:10:35.004Z,11.80
2023-10-17T01:11:34.995Z,11.40
2023-10-17T01:12:35.034Z,11.60
2023-10-17T01:13:35.074Z,11.60
2023-10-17T01:14:34.982Z,11.30
2023-10-17T01:15:35.048Z,11.30
2023-10-17T01:16:35.035Z,11.20
2023-10-17T01:17:35.008Z,11.00
2023-10-17T01:18:34.994Z,11.20
2023-10-17T01:19:34.970Z,12.00
2023-10-17T01:20:34.970Z,11.20
2023-10-17T01:21:35.029Z,12.30
2023-10-17T01:22:34.952Z,11.20
2023-10-17T01:23:34.952Z,11.70
2023-10-17T01:24:34.974Z,11.60
2023-10-17T01:25:34.945Z,11.50
2023-10-17T01:26:34.939Z,11.80
2023-10-17T01:27:34.974Z,11.50
2023-10-17T01:28:34.935Z,11.60
2023-10-17T01:29:34.932Z,11.60
2023-10-17T01:30:35.042Z,11.20
2023-10-17T01:31:34.930Z,11.90
2023-10-17T01:32:34.948Z,11.70
2023-10-17T01:33:34.952Z,13.40
2023-10-17T01:34:34.913Z,11.50
2023-10-17T01:35:34.910Z,11.90
2023-10-17T01:36:34.904Z,12.10
2023-10-17T01:37:34.928Z,11.50
2023-10-17T01:38:34.903Z,12.20
2023-10-17T01:39:34.896Z,12.60
2023-10-17T01:40:34.888Z,12.00
2023-10-17T01:41:34.887Z,11.60
2023-10-17T01:42:34.898Z,11.60
2023-10-17T01:43:34.885Z,14.80
2023-10-17T01:44:34.875Z,11.70
2023-10-17T01:45:34.942Z,11.80
2023-10-17T01:46:34.913Z,12.30
2023-10-17T01:47:34.964Z,11.70
2023-10-17T01:48:34.919Z,11.90
2023-10-17T01:49:34.860Z,12.00
2023-10-17T01:50:34.863Z,11.50
2023-10-17T01:51:34.900Z,12.40
2023-10-17T01:52:34.842Z,12.20
2023-10-17T01:53:34.872Z,12.20
2023-10-17T01:54:34.900Z,11.30
2023-10-17T01:55:34.862Z,12.30
2023-10-17T01:56:34.833Z,11.30
2023-10-17T01:57:34.868Z,11.50
2023-10-17T01:58:34.823Z,12.40
2023-10-17T01:59:34.838Z,11.90
2023-10-17T02:00:34.935Z,11.90
2023-10-17T02:01:34.839Z,12.10
2023-10-17T02:02:34.832Z,11.50
2023-10-17T02:03:34.841Z,12.20
2023-10-17T02:04:34.840Z,11.00
2023-10-17T02:05:34.803Z,12.00
2023-10-17T02:06:34.906Z,11.70
2023-10-17T02:07:34.793Z,11.10
2023-10-17T02:08:34.787Z,11.60
2023-10-17T02:09:34.857Z,12.00
2023-10-17T02:10:35.009Z,11.70
2023-10-17T02:11:34.794Z,14.40
2023-10-17T02:12:34.808Z,12.90
2023-10-17T02:13:34.778Z,11.40
2023-10-17T02:14:34.770Z,11.50
2023-10-17T02:15:34.820Z,10.90
2023-10-17T02:16:34.801Z,11.60
2023-10-17T02:17:34.779Z,11.50
2023-10-17T02:18:34.769Z,11.60
2023-10-17T02:19:34.764Z,11.10
2023-10-17T02:20:34.752Z,11.50
2023-10-17T02:21:34.769Z,11.30
2023-10-17T02:22:34.742Z,11.30
2023-10-17T02:23:34.758Z,11.80
2023-10-17T02:24:34.775Z,12.00
2023-10-17T02:25:34.759Z,11.30
2023-10-17T02:26:34.726Z,11.30
2023-10-17T02:27:34.750Z,11.50
2023-10-17T02:28:34.726Z,11.30
2023-10-17T02:29:34.723Z,11.30
2023-10-17T02:30:34.758Z,17.40
2023-10-17T02:31:34.750Z,11.40
2023-10-17T02:32:34.726Z,11.60
2023-10-17T02:33:34.770Z,11.50
2023-10-17T02:34:34.698Z,12.00
2023-10-17T02:35:34.703Z,11.50
2023-10-17T02:36:34.734Z,11.50
2023-10-17T02:37:34.695Z,11.20
2023-10-17T02:38:34.686Z,11.40
2023-10-17T02:39:34.786Z,11.20
2023-10-17T02:40:34.675Z,11.00
2023-10-17T02:41:34.721Z,11.20
2023-10-17T02:42:34.758Z,11.10
2023-10-17T02:43:34.671Z,11.40
2023-10-17T02:44:34.661Z,11.20
2023-10-17T02:45:34.726Z,11.50
2023-10-17T02:46:34.657Z,10.90
2023-10-17T02:47:34.709Z,11.30
2023-10-17T02:48:34.686Z,11.20
2023-10-17T02:49:34.651Z,11.10
2023-10-17T02:50:34.646Z,11.40
2023-10-17T02:51:34.677Z,11.00
2023-10-17T02:52:34.640Z,11.30
2023-10-17T02:53:34.643Z,11.40
2023-10-17T02:54:34.697Z,11.20
2023-10-17T02:55:34.632Z,11.70
2023-10-17T02:56:34.625Z,11.80
2023-10-17T02:57:34.944Z,11.50
2023-10-17T02:58:34.616Z,11.70
2023-10-17T02:59:34.628Z,12.20
2023-10-17T03:00:34.824Z,12.10
2023-10-17T03:01:34.690Z,11.80
2023-10-17T03:02:34.640Z,11.80
2023-10-17T03:03:34.745Z,11.60
2023-10-17T03:04:34.642Z,12.30
2023-10-17T03:05:34.599Z,13.70
2023-10-17T03:06:34.622Z,12.40
2023-10-17T03:07:34.588Z,11.80
2023-10-17T03:08:34.590Z,11.70
2023-10-17T03:09:34.641Z,11.40
2023-10-17T03:10:34.582Z,11.60
2023-10-17T03:11:34.575Z,11.90
2023-10-17T03:12:34.592Z,11.40
2023-10-17T03:13:34.595Z,11.60
2023-10-17T03:14:34.568Z,13.40
2023-10-17T03:15:34.591Z,11.30
2023-10-17T03:16:34.604Z,11.70
2023-10-17T03:17:34.605Z,11.90
2023-10-17T03:18:34.580Z,10.70
2023-10-17T03:19:34.552Z,11.10
2023-10-17T03:20:34.542Z,12.40
2023-10-17T03:21:34.581Z,10.70
2023-10-17T03:22:34.541Z,11.10
2023-10-17T03:23:34.537Z,10.70
2023-10-17T03:24:34.582Z,10.40
2023-10-17T03:25:34.732Z,10.50
2023-10-17T03:26:34.522Z,10.20
2023-10-17T03:27:34.547Z,10.40
2023-10-17T03:28:34.559Z,11.20
2023-10-17T03:29:34.532Z,10.70
2023-10-17T03:30:34.568Z,10.20
2023-10-17T03:31:34.566Z,10.50
2023-10-17T03:32:34.539Z,11.30
2023-10-17T03:33:34.542Z,10.70
2023-10-17T03:34:34.493Z,10.30
2023-10-17T03:35:34.492Z,10.00
2023-10-17T03:36:34.509Z,11.00
2023-10-17T03:37:34.483Z,10.90
2023-10-17T03:38:34.474Z,10.40
2023-10-17T03:39:34.504Z,10.10
2023-10-17T03:40:34.469Z,10.40
2023-10-17T03:41:34.468Z,11.10
2023-10-17T03:42:34.480Z,10.30
2023-10-17T03:43:34.464Z,11.40
2023-10-17T03:44:34.453Z,10.40
2023-10-17T03:45:34.578Z,10.30
2023-10-17T03:46:34.446Z,11.40
2023-10-17T03:47:34.448Z,11.30
2023-10-17T03:48:34.477Z,11.70
2023-10-17T03:49:34.438Z,12.60
2023-10-17T03:50:34.435Z,11.60
2023-10-17T03:51:34.586Z,10.80
2023-10-17T03:52:34.542Z,10.80
2023-10-17T03:53:34.424Z,10.90
2023-10-17T03:54:34.461Z,11.40
2023-10-17T03:55:34.431Z,11.30
2023-10-17T03:56:34.411Z,11.60
2023-10-17T03:57:34.433Z,11.30
2023-10-17T03:58:34.408Z,11.40
2023-10-17T03:59:34.404Z,11.30
2023-10-17T04:00:34.442Z,11.20
2023-10-17T04:01:34.433Z,12.10
2023-10-17T04:02:34.458Z,11.50
2023-10-17T04:03:34.416Z,11.10
2023-10-17T04:04:34.991Z,12.70
2023-10-17T04:05:34.389Z,11.40
2023-10-17T04:06:34.448Z,12.20
2023-10-17T04:07:34.380Z,12.30
2023-10-17T04:08:34.370Z,12.40
2023-10-17T04:09:34.409Z,12.20
2023-10-17T04:10:34.361Z,12.30
2023-10-17T04:11:34.367Z,12.80
2023-10-17T04:12:34.382Z,12.80
2023-10-17T04:13:34.353Z,14.00
2023-10-17T04:14:34.348Z,13.40
2023-10-17T04:15:34.379Z,12.90
2023-10-17T04:16:34.351Z,13.30
2023-10-17T04:17:34.374Z,13.30
2023-10-17T04:18:34.416Z,13.40
2023-10-17T04:19:34.514Z,12.70
2023-10-17T04:20:34.329Z,12.20
2023-10-17T04:21:34.356Z,12.80
2023-10-17T04:22:34.323Z,12.90
2023-10-17T04:23:34.322Z,13.00
2023-10-17T04:24:34.349Z,13.90
2023-10-17T04:25:34.332Z,12.70
2023-10-17T04:26:34.320Z,14.00
2023-10-17T04:27:34.431Z,12.80
2023-10-17T04:28:34.302Z,13.30
2023-10-17T04:29:34.307Z,13.60
2023-10-17T04:30:34.366Z,13.10
2023-10-17T04:31:34.328Z,12.60
2023-10-17T04:32:34.306Z,13.70
2023-10-17T04:33:34.348Z,12.90
2023-10-17T04:34:34.281Z,12.80
2023-10-17T04:35:34.290Z,14.20
2023-10-17T04:36:34.287Z,15.80
2023-10-17T04:37:34.285Z,13.10
2023-10-17T04:38:34.276Z,13.80
2023-10-17T04:39:34.312Z,13.30
2023-10-17T04:40:34.288Z,13.90
2023-10-17T04:41:34.266Z,13.70
2023-10-17T04:42:34.293Z,13.40
2023-10-17T04:43:34.262Z,13.80
2023-10-17T04:44:34.252Z,14.00
2023-10-17T04:45:34.359Z,14.20
2023-10-17T04:46:34.247Z,13.90
2023-10-17T04:47:34.269Z,14.10
2023-10-17T04:48:34.282Z,15.10
2023-10-17T04:49:34.268Z,14.10
2023-10-17T04:50:34.232Z,14.00
2023-10-17T04:51:34.363Z,13.80
2023-10-17T04:52:34.231Z,13.90
2023-10-17T04:53:34.334Z,14.20
2023-10-17T04:54:34.232Z,14.10
2023-10-17T04:55:34.222Z,13.60
2023-10-17T04:56:34.214Z,13.20
2023-10-17T04:57:34.253Z,13.80
2023-10-17T04:58:34.205Z,13.50
2023-10-17T04:59:34.207Z,13.00
2023-10-17T05:00:34.269Z,12.80
2023-10-17T05:01:34.268Z,14.10
2023-10-17T05:02:34.202Z,13.10
2023-10-17T05:03:34.447Z,13.00
2023-10-17T05:04:34.273Z,13.30
2023-10-17T05:05:34.215Z,14.10
2023-10-17T05:06:34.227Z,13.80
2023-10-17T05:07:34.182Z,14.00
2023-10-17T05:08:34.201Z,14.10
2023-10-17T05:09:35.195Z,13.70
2023-10-17T05:10:34.171Z,13.80
2023-10-17T05:11:34.236Z,13.40
2023-10-17T05:12:34.220Z,13.10
2023-10-17T05:13:34.169Z,13.00
2023-10-17T05:14:34.191Z,14.30
2023-10-17T05:15:34.289Z,12.90
2023-10-17T05:16:34.153Z,12.90
2023-10-17T05:17:34.190Z,13.00
2023-10-17T05:18:34.239Z,17.90
2023-10-17T05:19:34.145Z,13.90
2023-10-17T05:20:34.142Z,14.30
2023-10-17T05:21:34.208Z,17.20
2023-10-17T05:22:34.135Z,14.00
2023-10-17T05:23:34.127Z,14.10
2023-10-17T05:24:34.155Z,14.50
2023-10-17T05:25:34.135Z,14.70
2023-10-17T05:26:34.119Z,14.10
2023-10-17T05:27:34.139Z,14.50
2023-10-17T05:28:34.126Z,13.30
2023-10-17T05:29:34.104Z,13.10
2023-10-17T05:30:34.161Z,13.50
2023-10-17T05:31:34.147Z,13.40
2023-10-17T05:32:34.123Z,14.10
2023-10-17T05:33:34.150Z,14.40
2023-10-17T05:34:34.121Z,13.60
2023-10-17T05:35:34.104Z,14.00
2023-10-17T05:36:34.123Z,13.70
2023-10-17T05:37:34.109Z,15.00
2023-10-17T05:38:34.085Z,13.60
2023-10-17T05:39:34.115Z,13.90
2023-10-17T05:40:34.103Z,13.80
2023-10-17T05:41:34.075Z,14.20
2023-10-17T05:42:34.105Z,14.60
2023-10-17T05:43:34.065Z,14.30
2023-10-17T05:44:34.069Z,13.30
2023-10-17T05:45:34.123Z,13.60
2023-10-17T05:46:34.076Z,13.90
2023-10-17T05:47:34.108Z,13.40
2023-10-17T05:48:34.071Z,13.30
2023-10-17T05:49:34.075Z,12.70
2023-10-17T05:50:34.048Z,13.30
2023-10-17T05:51:34.146Z,12.80
2023-10-17T05:52:34.042Z,13.00
2023-10-17T05:53:34.064Z,13.60
2023-10-17T05:54:59.710Z,14.00
2023-10-17T05:55:35.319Z,13.40
2023-10-17T05:56:34.054Z,13.80
2023-10-17T05:57:34.067Z,13.20
2023-10-17T05:58:34.022Z,13.00
2023-10-17T05:59:34.030Z,13.50
2023-10-17T06:00:34.101Z,13.50
2023-10-17T06:01:34.039Z,14.00
2023-10-17T06:02:34.074Z,14.70
2023-10-17T06:03:34.122Z,14.50
2023-10-17T06:04:34.196Z,14.90
2023-10-17T06:05:34.004Z,14.10
2023-10-17T06:06:34.084Z,14.40
2023-10-17T06:07:33.997Z,14.40
2023-10-17T06:08:34.009Z,15.30
2023-10-17T06:09:34.081Z,14.80
2023-10-17T06:10:34.091Z,15.80
2023-10-17T06:11:33.987Z,14.60
2023-10-17T06:12:34.021Z,14.30
2023-10-17T06:13:33.979Z,14.50
2023-10-17T06:14:33.978Z,14.20
2023-10-17T06:15:34.011Z,13.80
2023-10-17T06:16:34.001Z,15.10
2023-10-17T06:17:34.050Z,14.70
2023-10-17T06:18:34.012Z,14.40
2023-10-17T06:19:34.018Z,14.80
2023-10-17T06:20:33.960Z,14.40
2023-10-17T06:21:33.964Z,15.00
2023-10-17T06:22:33.955Z,14.70
2023-10-17T06:23:33.949Z,15.50
2023-10-17T06:24:33.975Z,14.40
2023-10-17T06:25:33.970Z,14.10
2023-10-17T06:26:33.949Z,14.40
2023-10-17T06:27:34.043Z,14.70
2023-10-17T06:28:33.938Z,15.20
2023-10-17T06:29:35.740Z,16.20
2023-10-17T06:30:34.016Z,15.60
2023-10-17T06:31:34.003Z,16.20
2023-10-17T06:32:33.955Z,15.50
2023-10-17T06:33:33.965Z,15.00
2023-10-17T06:34:33.950Z,15.60
2023-10-17T06:35:33.920Z,14.40
2023-10-17T06:36:33.949Z,14.90
2023-10-17T06:37:33.911Z,15.10
2023-10-17T06:38:35.335Z,15.60
2023-10-17T06:39:33.919Z,15.10
2023-10-17T06:40:33.907Z,16.00
2023-10-17T06:41:33.917Z,15.50
2023-10-17T06:42:35.990Z,14.90
2023-10-17T06:43:33.893Z,16.40
2023-10-17T06:44:33.892Z,15.00
2023-10-17T06:45:33.900Z,15.10
2023-10-17T06:46:33.926Z,15.60
2023-10-17T06:47:33.894Z,14.90
2023-10-17T06:48:34.164Z,15.40
2023-10-17T06:49:33.880Z,14.90
2023-10-17T06:50:33.876Z,14.80
2023-10-17T06:51:33.896Z,14.30
2023-10-17T06:52:33.873Z,14.30
2023-10-17T06:53:33.878Z,14.80
2023-10-17T06:54:33.909Z,14.50
2023-10-17T06:55:33.864Z,15.50
2023-10-17T06:56:33.862Z,14.60
2023-10-17T06:57:33.913Z,15.50
2023-10-17T06:58:33.943Z,14.10
2023-10-17T06:59:33.854Z,14.30
2023-10-17T07:00:33.887Z,14.40
2023-10-17T07:01:33.875Z,14.80
2023-10-17T07:02:33.883Z,14.30
2023-10-17T07:03:33.944Z,14.10
2023-10-17T07:04:33.958Z,14.40
2023-10-17T07:05:33.832Z,14.40
2023-10-17T07:06:33.870Z,16.00
2023-10-17T07:07:33.825Z,16.80
2023-10-17T07:08:33.829Z,14.30
2023-10-17T07:09:33.851Z,15.20
2023-10-17T07:10:33.827Z,15.90
2023-10-17T07:11:33.827Z,15.60
2023-10-17T07:12:33.853Z,15.30
2023-10-17T07:13:33.838Z,15.20
2023-10-17T07:14:33.815Z,15.10
2023-10-17T07:15:33.828Z,14.80
2023-10-17T07:16:33.923Z,17.90
2023-10-17T07:17:33.842Z,15.00
2023-10-17T07:18:33.909Z,17.10
2023-10-17T07:19:34.263Z,17.10
2023-10-17T07:20:33.801Z,15.40
2023-10-17T07:21:33.811Z,15.50
2023-10-17T07:22:33.791Z,15.30
2023-10-17T07:23:33.789Z,14.70
2023-10-17T07:24:33.818Z,14.50
2023-10-17T07:25:33.783Z,15.90
2023-10-17T07:26:33.790Z,14.90
2023-10-17T07:27:33.805Z,15.30
2023-10-17T07:28:33.779Z,15.20
2023-10-17T07:29:33.797Z,15.00
2023-10-17T07:30:33.857Z,15.20
2023-10-17T07:31:33.793Z,15.10
2023-10-17T07:32:34.009Z,17.30
2023-10-17T07:33:33.794Z,15.20
2023-10-17T07:34:33.768Z,15.00
2023-10-17T07:35:33.763Z,15.50
2023-10-17T07:36:33.796Z,15.10
2023-10-17T07:37:33.752Z,15.00
2023-10-17T07:38:33.753Z,14.80
2023-10-17T07:39:33.817Z,14.30
2023-10-17T07:40:33.757Z,15.00
2023-10-17T07:41:33.752Z,14.80
2023-10-17T07:42:33.812Z,14.60
2023-10-17T07:43:33.744Z,14.90
2023-10-17T07:44:33.737Z,14.60
2023-10-17T07:45:33.780Z,15.00
2023-10-17T07:46:33.780Z,14.90
2023-10-17T07:47:33.748Z,14.70
2023-10-17T07:48:33.759Z,14.70
2023-10-17T07:49:33.720Z,15.30
2023-10-17T07:50:33.728Z,15.20
2023-10-17T07:51:33.776Z,15.00
2023-10-17T07:52:33.717Z,15.30
2023-10-17T07:53:34.087Z,15.00
2023-10-17T07:54:33.747Z,17.80
2023-10-17T07:55:33.717Z,14.80
2023-10-17T07:56:33.710Z,18.60
2023-10-17T07:57:33.724Z,14.70
2023-10-17T07:58:33.700Z,15.50
2023-10-17T07:59:33.706Z,15.70
2023-10-17T08:00:33.742Z,15.60
2023-10-17T08:01:33.779Z,15.20
2023-10-17T08:02:33.702Z,15.10
2023-10-17T08:03:33.812Z,15.90
2023-10-17T08:04:33.782Z,15.50
2023-10-17T08:05:33.697Z,15.80
2023-10-17T08:06:33.700Z,15.80
2023-10-17T08:07:33.688Z,15.50
2023-10-17T08:08:33.687Z,15.50
2023-10-17T08:09:39.644Z,15.40
2023-10-17T08:10:33.686Z,15.90
2023-10-17T08:11:33.680Z,15.10
2023-10-17T08:12:33.681Z,15.60
2023-10-17T08:13:33.675Z,15.20
2023-10-17T08:14:33.672Z,15.50
2023-10-17T08:15:33.700Z,14.90
2023-10-17T08:16:33.777Z,15.00
2023-10-17T08:17:33.735Z,15.10
2023-10-17T08:18:33.729Z,15.60
2023-10-17T08:19:33.724Z,15.20
2023-10-17T08:20:33.665Z,15.00
2023-10-17T08:21:33.746Z,15.00
2023-10-17T08:22:33.664Z,15.10
2023-10-17T08:23:33.659Z,15.10
2023-10-17T08:24:33.668Z,15.90
2023-10-17T08:25:33.653Z,14.80
2023-10-17T08:26:34.062Z,15.20
2023-10-17T08:27:33.711Z,14.80
2023-10-17T08:28:33.703Z,15.00
2023-10-17T08:29:33.645Z,15.20
2023-10-17T08:30:45.162Z,15.10
2023-10-17T08:31:33.717Z,14.30
2023-10-17T08:32:33.701Z,14.80
2023-10-17T08:33:33.695Z,15.00
2023-10-17T08:34:33.645Z,14.70
2023-10-17T08:35:33.638Z,15.20
2023-10-17T08:36:33.705Z,15.10
2023-10-17T08:37:33.642Z,14.90
2023-10-17T08:38:33.638Z,15.30
2023-10-17T08:39:33.659Z,15.70
2023-10-17T08:40:33.904Z,15.00
2023-10-17T08:41:33.632Z,16.00
2023-10-17T08:42:33.662Z,14.70
2023-10-17T08:43:33.632Z,14.30
2023-10-17T08:44:33.632Z,15.10
2023-10-17T08:45:33.657Z,15.30
2023-10-17T08:46:33.670Z,15.60
2023-10-17T08:47:33.841Z,15.20
2023-10-17T08:48:33.675Z,14.80
2023-10-17T08:49:33.644Z,14.80
2023-10-17T08:50:33.628Z,14.40
2023-10-17T08:51:33.670Z,14.20
2023-10-17T08:52:33.620Z,14.40
2023-10-17T08:53:33.622Z,14.40
2023-10-17T08:54:33.666Z,14.90
2023-10-17T08:55:33.618Z,14.50
2023-10-17T08:56:33.619Z,14.80
2023-10-17T08:57:33.691Z,15.10
2023-10-17T08:58:33.622Z,14.80
2023-10-17T08:59:33.612Z,17.40
2023-10-17T09:00:33.657Z,15.30
2023-10-17T09:01:33.696Z,14.60
2023-10-17T09:02:33.663Z,14.70
2023-10-17T09:03:33.679Z,14.60
2023-10-17T09:04:33.672Z,14.60
2023-10-17T09:05:33.643Z,14.30
2023-10-17T09:06:33.778Z,14.40
2023-10-17T09:07:33.606Z,14.50
2023-10-17T09:08:33.620Z,14.20
2023-10-17T09:09:33.639Z,14.90
2023-10-17T09:10:33.612Z,14.60
2023-10-17T09:11:33.608Z,15.20
2023-10-17T09:12:33.634Z,15.10
2023-10-17T09:13:33.626Z,14.80
2023-10-17T09:14:33.605Z,14.60
2023-10-17T09:15:33.664Z,14.60
2023-10-17T09:16:33.625Z,15.00
2023-10-17T09:17:33.621Z,14.90
2023-10-17T09:18:33.624Z,15.10
2023-10-17T09:19:33.598Z,16.40
2023-10-17T09:20:33.609Z,14.90
2023-10-17T09:21:33.662Z,14.80
2023-10-17T09:22:33.608Z,14.80
2023-10-17T09:23:33.596Z,14.70
2023-10-17T09:24:34.011Z,14.80
2023-10-17T09:25:33.599Z,14.70
2023-10-17T09:26:33.609Z,14.60
2023-10-17T09:27:33.682Z,14.50
2023-10-17T09:28:33.611Z,14.60
2023-10-17T09:29:33.596Z,14.60
2023-10-17T09:30:33.678Z,14.50
2023-10-17T09:31:33.705Z,14.70
2023-10-17T09:32:33.652Z,14.80
2023-10-17T09:33:33.740Z,15.00
2023-10-17T09:34:33.586Z,14.80
2023-10-17T09:35:33.609Z,14.50
2023-10-17T09:36:33.648Z,14.50
2023-10-17T09:37:33.718Z,14.30
2023-10-17T09:38:33.594Z,14.40
2023-10-17T09:39:38.276Z,14.40
2023-10-17T09:40:33.596Z,14.10
2023-10-17T09:41:33.589Z,14.70
2023-10-17T09:42:33.642Z,14.20
2023-10-17T09:43:33.592Z,14.70
2023-10-17T09:44:33.613Z,14.30
2023-10-17T09:45:35.320Z,14.10
2023-10-17T09:46:33.784Z,14.40
2023-10-17T09:47:33.781Z,13.70
2023-10-17T09:48:33.731Z,14.00
2023-10-17T09:49:34.019Z,13.90
2023-10-17T09:50:33.584Z,13.70
2023-10-17T09:51:33.672Z,14.80
2023-10-17T09:52:33.577Z,13.90
2023-10-17T09:53:33.602Z,13.80
2023-10-17T09:54:33.616Z,13.70
2023-10-17T09:55:33.588Z,13.50
2023-10-17T09:56:33.578Z,14.20
2023-10-17T09:57:33.646Z,14.30
2023-10-17T09:58:33.588Z,14.00
2023-10-17T09:59:33.576Z,14.30
2023-10-17T10:00:33.604Z,13.90
2023-10-17T10:01:33.629Z,13.60
2023-10-17T10:02:33.632Z,14.00
2023-10-17T10:03:33.712Z,13.90
2023-10-17T10:04:33.695Z,14.10
2023-10-17T10:05:33.632Z,14.40
2023-10-17T10:06:34.078Z,13.60
2023-10-17T10:07:33.567Z,13.70
2023-10-17T10:08:33.597Z,14.10
2023-10-17T10:09:33.628Z,14.50
2023-10-17T10:10:33.590Z,14.00
2023-10-17T10:11:33.580Z,13.80
2023-10-17T10:12:33.634Z,14.40
2023-10-17T10:13:33.570Z,13.90
2023-10-17T10:14:33.577Z,13.90
2023-10-17T10:15:33.580Z,13.60
2023-10-17T10:16:33.611Z,13.70
2023-10-17T10:17:33.622Z,13.70
2023-10-17T10:18:33.594Z,14.20
2023-10-17T10:19:33.563Z,13.90
2023-10-17T10:20:33.567Z,14.00
2023-10-17T10:21:33.606Z,14.20
2023-10-17T10:22:33.566Z,14.30
2023-10-17T10:23:45.551Z,14.10
2023-10-17T10:24:36.345Z,13.40
2023-10-17T10:25:33.597Z,13.20
2023-10-17T10:26:33.563Z,13.10
2023-10-17T10:27:33.647Z,14.10
2023-10-17T10:28:33.559Z,13.40
2023-10-17T10:29:33.566Z,13.90
2023-10-17T10:30:33.592Z,14.30
2023-10-17T10:31:33.559Z,13.90
2023-10-17T10:32:33.595Z,15.00
2023-10-17T10:33:33.578Z,14.00
2023-10-17T10:34:33.571Z,14.10
2023-10-17T10:35:33.757Z,13.80
2023-10-17T10:36:33.594Z,14.10
2023-10-17T10:37:33.566Z,14.30
2023-10-17T10:38:33.547Z,13.80
2023-10-17T10:39:33.576Z,13.70
2023-10-17T10:40:33.560Z,13.70
2023-10-17T10:41:33.597Z,13.90
2023-10-17T10:42:33.561Z,13.60
2023-10-17T10:43:33.560Z,13.40
2023-10-17T10:44:33.549Z,13.60
2023-10-17T10:45:33.998Z,14.10
2023-10-17T10:46:33.661Z,13.90
2023-10-17T10:47:33.652Z,14.00
2023-10-17T10:48:33.747Z,13.80
2023-10-17T10:49:33.553Z,13.80
2023-10-17T10:50:33.544Z,14.00
2023-10-17T10:51:33.691Z,13.80
2023-10-17T10:52:33.572Z,13.60
2023-10-17T10:53:33.610Z,13.80
2023-10-17T10:54:33.571Z,13.60
2023-10-17T10:55:33.540Z,13.60
2023-10-17T10:56:33.543Z,13.90
2023-10-17T10:57:33.688Z,14.00
2023-10-17T10:58:33.565Z,14.50
2023-10-17T10:59:33.550Z,14.50
2023-10-17T11:00:33.619Z,14.00
2023-10-17T11:01:33.561Z,15.50
2023-10-17T11:02:33.554Z,13.80
2023-10-17T11:03:33.726Z,13.70
2023-10-17T11:04:33.656Z,13.90
2023-10-17T11:05:33.534Z,13.80
2023-10-17T11:06:33.555Z,13.90
2023-10-17T11:07:33.535Z,13.60
2023-10-17T11:08:33.533Z,13.80
2023-10-17T11:09:33.597Z,14.50
2023-10-17T11:10:33.527Z,13.50
2023-10-17T11:11:33.537Z,13.60
2023-10-17T11:12:33.568Z,14.00
2023-10-17T11:13:33.558Z,13.80
2023-10-17T11:14:33.532Z,13.70
2023-10-17T11:15:33.585Z,13.40
2023-10-17T11:16:33.602Z,13.60
2023-10-17T11:17:33.564Z,13.60
2023-10-17T11:18:33.555Z,13.70
2023-10-17T11:19:33.527Z,13.20
2023-10-17T11:20:33.515Z,13.40
2023-10-17T11:21:33.554Z,13.60
2023-10-17T11:22:33.525Z,13.70
2023-10-17T11:23:33.542Z,14.00
2023-10-17T11:24:33.596Z,14.00
2023-10-17T11:25:33.526Z,13.50
2023-10-17T11:26:33.543Z,13.80
2023-10-17T11:27:33.581Z,13.20
2023-10-17T11:28:33.512Z,14.10
2023-10-17T11:29:33.535Z,13.70
2023-10-17T11:30:33.527Z,13.80
2023-10-17T11:31:33.572Z,13.50
2023-10-17T11:32:33.515Z,13.90
2023-10-17T11:33:33.547Z,13.40
2023-10-17T11:34:33.527Z,13.70
2023-10-17T11:35:33.513Z,13.40
2023-10-17T11:36:33.546Z,13.60
2023-10-17T11:37:33.514Z,13.40
2023-10-17T11:38:43.304Z,13.40
2023-10-17T11:39:33.548Z,13.70
2023-10-17T11:40:33.522Z,13.80
2023-10-17T11:41:33.500Z,13.90
2023-10-17T11:42:33.540Z,13.40
2023-10-17T11:43:33.502Z,13.70
2023-10-17T11:44:33.508Z,13.30
2023-10-17T11:45:35.367Z,13.40
2023-10-17T11:46:33.711Z,13.90
2023-10-17T11:47:33.528Z,13.70
2023-10-17T11:48:33.510Z,14.10
2023-10-17T11:49:33.510Z,13.80
2023-10-17T11:50:33.500Z,14.10
2023-10-17T11:51:33.523Z,14.10
2023-10-17T11:52:33.486Z,13.90
2023-10-17T11:53:33.493Z,13.70
2023-10-17T11:54:35.244Z,13.90
2023-10-17T11:55:33.524Z,13.20
2023-10-17T11:56:33.492Z,14.00
2023-10-17T11:57:33.576Z,13.80
2023-10-17T11:58:33.484Z,13.80
2023-10-17T11:59:33.491Z,14.60
2023-10-17T12:00:33.539Z,14.30
2023-10-17T12:01:33.541Z,14.00
2023-10-17T12:02:33.494Z,13.80
2023-10-17T12:03:33.563Z,13.80
2023-10-17T12:04:33.547Z,13.80
2023-10-17T12:05:33.485Z,13.50
2023-10-17T12:06:33.549Z,14.20
2023-10-17T12:07:33.501Z,13.60
2023-10-17T12:08:33.478Z,13.90
2023-10-17T12:09:33.523Z,13.90
2023-10-17T12:10:35.182Z,13.60
2023-10-17T12:11:33.497Z,13.70
2023-10-17T12:12:33.508Z,13.90
2023-10-17T12:13:33.479Z,13.70
2023-10-17T12:14:33.472Z,14.00
2023-10-17T12:15:33.524Z,14.00
2023-10-17T12:16:33.528Z,14.00
2023-10-17T12:17:33.549Z,13.70
2023-10-17T12:18:33.511Z,13.80
2023-10-17T12:19:33.472Z,14.30
2023-10-17T12:20:33.460Z,14.50
2023-10-17T12:21:33.604Z,14.10
2023-10-17T12:22:33.468Z,14.10
2023-10-17T12:23:33.462Z,13.90
2023-10-17T12:24:33.477Z,13.70
2023-10-17T12:25:33.475Z,14.30
2023-10-17T12:26:33.460Z,13.60
2023-10-17T12:27:33.480Z,14.10
2023-10-17T12:28:33.584Z,14.00
2023-10-17T12:29:33.457Z,14.00
2023-10-17T12:30:33.479Z,13.90
2023-10-17T12:31:33.509Z,14.00
2023-10-17T12:32:33.475Z,13.80
2023-10-17T12:33:33.518Z,13.90
2023-10-17T12:34:33.452Z,13.80
2023-10-17T12:35:33.454Z,13.70
2023-10-17T12:36:33.479Z,14.10
2023-10-17T12:37:33.455Z,14.20
2023-10-17T12:38:33.450Z,13.60
2023-10-17T12:39:33.476Z,13.70
2023-10-17T12:40:33.457Z,13.50
2023-10-17T12:41:33.439Z,13.60
2023-10-17T12:42:33.475Z,13.90
2023-10-17T12:43:33.455Z,13.40
2023-10-17T12:44:33.450Z,14.00
2023-10-17T12:45:33.468Z,14.60
2023-10-17T12:46:33.489Z,13.50
2023-10-17T12:47:33.481Z,14.10
2023-10-17T12:48:33.517Z,13.90
2023-10-17T12:49:33.462Z,14.60
2023-10-17T12:50:33.438Z,14.30
2023-10-17T12:51:33.519Z,14.20
2023-10-17T12:52:33.485Z,14.10